createdAt,value
2018-07-13T00:00:17.553Z,18.87
2018-07-13T00:02:46.829Z,18.95
2018-07-13T00:05:16.178Z,18.94
2018-07-13T00:07:45.454Z,18.90
2018-07-13T00:10:14.739Z,18.90
2018-07-13T00:12:43.972Z,18.85
2018-07-13T00:15:13.331Z,18.80
2018-07-13T00:17:42.593Z,18.83
2018-07-13T00:20:11.855Z,18.77
2018-07-13T00:22:41.223Z,18.72
2018-07-13T00:25:10.487Z,18.64
2018-07-13T00:27:39.777Z,18.64
2018-07-13T00:30:09.103Z,18.61
2018-07-13T00:32:38.402Z,18.61
2018-07-13T00:35:07.876Z,18.62
2018-07-13T00:37:37.207Z,18.56
2018-07-13T00:40:06.584Z,18.55
2018-07-13T00:42:35.924Z,18.48
2018-07-13T00:45:05.283Z,18.44
2018-07-13T00:47:34.555Z,18.46
2018-07-13T00:50:03.871Z,18.49
2018-07-13T00:52:33.154Z,18.55
2018-07-13T00:55:02.420Z,18.46
2018-07-13T00:57:31.733Z,18.46
2018-07-13T01:00:00.996Z,18.44
2018-07-13T01:02:30.264Z,18.38
2018-07-13T01:04:59.620Z,18.37
2018-07-13T01:07:28.856Z,18.31
2018-07-13T01:09:58.146Z,18.29
2018-07-13T01:12:27.488Z,18.24
2018-07-13T01:14:56.783Z,18.18
2018-07-13T01:17:26.177Z,18.18
2018-07-13T01:19:55.491Z,18.10
2018-07-13T01:22:24.762Z,18.03
2018-07-13T01:24:54.142Z,17.97
2018-07-13T01:27:26.927Z,18.02
2018-07-13T01:29:56.759Z,17.95
2018-07-13T01:32:26.118Z,17.92
2018-07-13T01:34:55.473Z,17.92
2018-07-13T01:37:24.736Z,17.91
2018-07-13T01:39:54.031Z,17.88
2018-07-13T01:42:23.317Z,17.84
2018-07-13T01:44:52.612Z,17.81
2018-07-13T01:47:21.855Z,17.88
2018-07-13T01:49:51.092Z,17.83
2018-07-13T01:52:20.357Z,17.82
2018-07-13T01:54:49.642Z,17.73
2018-07-13T01:57:18.895Z,17.71
2018-07-13T01:59:48.427Z,17.66
2018-07-13T02:02:17.949Z,17.62
2018-07-13T02:04:47.339Z,17.61
2018-07-13T02:07:16.629Z,17.56
2018-07-13T02:09:45.869Z,17.52
2018-07-13T02:12:16.196Z,17.48
2018-07-13T02:14:45.456Z,17.45
2018-07-13T02:17:14.710Z,17.45
2018-07-13T02:19:44.075Z,17.52
2018-07-13T02:22:13.530Z,17.50
2018-07-13T02:24:42.942Z,17.52
2018-07-13T02:27:12.230Z,17.55
2018-07-13T02:29:41.611Z,17.54
2018-07-13T02:32:10.953Z,17.60
2018-07-13T02:34:40.255Z,17.50
2018-07-13T02:37:09.635Z,17.47
2018-07-13T02:39:38.971Z,17.47
2018-07-13T02:42:08.309Z,17.42
2018-07-13T02:44:37.624Z,17.37
2018-07-13T02:47:07.046Z,17.36
2018-07-13T02:49:36.331Z,17.32
2018-07-13T02:52:05.732Z,17.27
2018-07-13T02:54:35.068Z,17.25
2018-07-13T02:57:04.395Z,17.23
2018-07-13T02:59:33.709Z,17.21
2018-07-13T03:02:02.981Z,17.16
2018-07-13T03:04:32.317Z,17.14
2018-07-13T03:07:01.563Z,17.13
2018-07-13T03:09:30.852Z,17.12
2018-07-13T03:11:59.915Z,17.06
2018-07-13T03:14:29.185Z,17.13
2018-07-13T03:16:58.431Z,17.13
2018-07-13T03:19:27.725Z,17.13
2018-07-13T03:21:56.984Z,17.18
2018-07-13T03:24:26.230Z,17.09
2018-07-13T03:26:55.495Z,17.04
2018-07-13T03:29:24.822Z,16.98
2018-07-13T03:31:54.276Z,16.95
2018-07-13T03:34:23.404Z,16.93
2018-07-13T03:36:53.054Z,16.97
2018-07-13T03:39:22.320Z,16.97
2018-07-13T03:41:51.563Z,16.92
2018-07-13T03:44:20.833Z,16.92
2018-07-13T03:46:50.181Z,16.92
2018-07-13T03:49:19.486Z,17.00
2018-07-13T03:51:48.807Z,16.96
2018-07-13T03:54:18.161Z,16.96
2018-07-13T03:56:47.328Z,16.95
2018-07-13T03:59:16.588Z,16.98
2018-07-13T04:01:45.865Z,16.96
2018-07-13T04:04:16.194Z,16.99
2018-07-13T04:06:45.419Z,17.03
2018-07-13T04:09:14.710Z,17.00
2018-07-13T04:11:43.983Z,17.04
2018-07-13T04:14:13.250Z,17.03
2018-07-13T04:16:42.558Z,17.10
2018-07-13T04:19:11.675Z,17.09
2018-07-13T04:21:40.992Z,17.16
2018-07-13T04:24:10.360Z,17.21
2018-07-13T04:26:40.529Z,17.28
2018-07-13T04:29:09.921Z,17.31
2018-07-13T04:31:39.354Z,17.43
2018-07-13T04:34:08.800Z,17.57
2018-07-13T04:36:38.131Z,17.78
2018-07-13T04:39:10.813Z,18.06
2018-07-13T04:41:40.214Z,18.12
2018-07-13T04:44:09.736Z,18.12
2018-07-13T04:46:39.149Z,18.06
2018-07-13T04:49:08.485Z,18.07
2018-07-13T04:51:37.839Z,18.14
2018-07-13T04:54:07.287Z,18.17
2018-07-13T04:56:36.668Z,18.24
2018-07-13T04:59:06.137Z,18.24
2018-07-13T05:01:35.460Z,18.35
2018-07-13T05:04:04.943Z,18.44
2018-07-13T05:06:34.579Z,18.59
2018-07-13T05:09:04.172Z,18.71
2018-07-13T05:11:33.390Z,18.82
2018-07-13T05:14:02.738Z,18.97
2018-07-13T05:16:32.000Z,19.10
2018-07-13T05:19:01.305Z,19.21
2018-07-13T05:21:30.575Z,19.40
2018-07-13T05:23:59.851Z,19.50
2018-07-13T05:26:29.417Z,19.63
2018-07-13T05:28:58.835Z,19.85
2018-07-13T05:31:28.133Z,19.84
2018-07-13T05:33:57.425Z,20.13
2018-07-13T05:36:26.697Z,20.27
2018-07-13T05:38:55.967Z,20.38
2018-07-13T05:41:25.287Z,20.47
2018-07-13T05:43:54.651Z,20.58
2018-07-13T05:46:24.032Z,20.75
2018-07-13T05:48:53.320Z,20.82
2018-07-13T05:51:22.629Z,21.11
2018-07-13T05:53:51.918Z,21.31
2018-07-13T05:56:21.286Z,21.29
2018-07-13T05:58:50.618Z,21.56
2018-07-13T06:01:20.057Z,21.70
2018-07-13T06:03:49.738Z,21.54
2018-07-13T06:06:19.037Z,21.61
2018-07-13T06:08:48.162Z,21.81
2018-07-13T06:11:17.569Z,21.75
2018-07-13T06:13:46.811Z,21.85
2018-07-13T06:16:16.125Z,22.10
2018-07-13T06:18:45.420Z,22.40
2018-07-13T06:21:14.718Z,22.61
2018-07-13T06:23:44.001Z,22.67
2018-07-13T06:26:13.289Z,22.88
2018-07-13T06:28:42.644Z,23.00
2018-07-13T06:31:11.963Z,23.30
2018-07-13T06:33:41.235Z,23.51
2018-07-13T06:36:10.727Z,23.29
2018-07-13T06:38:40.055Z,23.34
2018-07-13T06:41:09.562Z,23.74
2018-07-13T06:43:38.932Z,24.14
2018-07-13T06:46:08.831Z,24.34
2018-07-13T06:48:38.330Z,24.42
2018-07-13T06:51:07.621Z,24.42
2018-07-13T06:53:37.036Z,24.89
2018-07-13T06:56:06.334Z,24.89
2018-07-13T06:58:52.307Z,25.17
2018-07-13T07:01:21.649Z,25.28
2018-07-13T07:05:03.543Z,25.32
2018-07-13T07:07:32.819Z,25.62
2018-07-13T07:10:02.059Z,25.04
2018-07-13T07:12:56.145Z,25.74
2018-07-13T07:15:25.816Z,25.68
2018-07-13T07:17:55.568Z,25.68
2018-07-13T07:20:24.923Z,25.65
2018-07-13T07:22:54.217Z,26.38
2018-07-13T07:25:23.482Z,26.62
2018-07-13T07:27:52.811Z,26.97
2018-07-13T07:30:22.083Z,27.20
2018-07-13T07:32:51.353Z,27.26
2018-07-13T07:35:20.745Z,27.36
2018-07-13T07:37:50.012Z,27.53
2018-07-13T07:40:19.309Z,27.47
2018-07-13T07:42:48.560Z,27.35
2018-07-13T07:45:17.883Z,27.16
2018-07-13T07:47:47.108Z,27.95
2018-07-13T07:50:16.471Z,28.10
2018-07-13T07:52:45.739Z,28.04
2018-07-13T07:55:15.025Z,28.34
2018-07-13T07:57:44.863Z,28.89
2018-07-13T08:00:14.155Z,28.51
2018-07-13T08:02:43.430Z,28.83
2018-07-13T08:05:12.747Z,28.73
2018-07-13T08:07:42.198Z,29.17
2018-07-13T08:10:11.421Z,29.46
2018-07-13T08:12:40.744Z,28.98
2018-07-13T08:15:10.137Z,29.16
2018-07-13T08:17:39.523Z,29.58
2018-07-13T08:20:08.996Z,29.23
2018-07-13T08:22:45.467Z,29.97
2018-07-13T08:25:15.304Z,30.08
2018-07-13T08:27:46.277Z,30.19
2018-07-13T08:30:25.848Z,29.94
2018-07-13T08:32:55.296Z,30.06
2018-07-13T08:35:24.613Z,29.84
2018-07-13T08:37:53.990Z,29.82
2018-07-13T08:40:23.243Z,29.84
2018-07-13T08:42:52.705Z,30.22
2018-07-13T08:45:21.998Z,30.58
2018-07-13T08:47:51.347Z,30.37
2018-07-13T08:50:20.680Z,30.04
2018-07-13T08:52:50.000Z,30.02
2018-07-13T08:55:19.304Z,30.43
2018-07-13T08:57:49.363Z,30.68
2018-07-13T09:00:18.661Z,30.67
2018-07-13T09:02:47.936Z,30.83
2018-07-13T09:05:17.255Z,30.79
2018-07-13T09:07:46.545Z,31.18
2018-07-13T09:10:15.897Z,30.79
2018-07-13T09:12:45.185Z,31.02
2018-07-13T09:15:14.983Z,31.00
2018-07-13T09:17:44.291Z,31.27
2018-07-13T09:20:14.211Z,30.76
2018-07-13T09:22:43.544Z,31.06
2018-07-13T09:25:12.952Z,31.16
2018-07-13T09:27:42.249Z,31.38
2018-07-13T09:30:12.235Z,30.81
2018-07-13T09:32:41.706Z,31.12
2018-07-13T09:35:11.203Z,31.11
2018-07-13T09:37:41.704Z,31.17
2018-07-13T09:40:11.095Z,31.61
2018-07-13T09:42:40.446Z,31.98
2018-07-13T09:45:09.932Z,32.01
2018-07-13T09:47:39.346Z,32.35
2018-07-13T09:50:08.668Z,32.25
2018-07-13T09:52:38.174Z,32.05
2018-07-13T09:55:07.825Z,32.50
2018-07-13T09:57:37.387Z,32.56
2018-07-13T10:00:07.105Z,32.86
2018-07-13T10:02:36.437Z,32.96
2018-07-13T10:05:05.834Z,32.88
2018-07-13T10:07:35.194Z,32.95
2018-07-13T10:10:04.592Z,33.30
2018-07-13T10:12:34.023Z,32.98
2018-07-13T10:15:03.308Z,32.86
2018-07-13T10:17:32.621Z,32.78
2018-07-13T10:20:01.885Z,32.84
2018-07-13T10:22:31.903Z,32.64
2018-07-13T10:25:03.408Z,32.84
2018-07-13T10:27:35.858Z,33.26
2018-07-13T10:30:06.914Z,33.00
2018-07-13T10:32:36.434Z,33.25
2018-07-13T10:35:08.235Z,33.46
2018-07-13T10:37:37.946Z,33.56
2018-07-13T10:40:07.441Z,33.86
2018-07-13T10:42:36.903Z,33.89
2018-07-13T10:45:06.350Z,33.79
2018-07-13T10:47:35.759Z,33.12
2018-07-13T10:50:05.178Z,33.64
2018-07-13T10:52:34.785Z,33.28
2018-07-13T10:55:04.050Z,33.25
2018-07-13T10:57:33.356Z,34.11
2018-07-13T11:00:02.685Z,33.36
2018-07-13T11:02:31.985Z,33.28
2018-07-13T11:05:01.280Z,33.08
2018-07-13T11:07:30.601Z,33.53
2018-07-13T11:09:59.931Z,32.87
2018-07-13T11:12:29.203Z,33.15
2018-07-13T11:14:58.487Z,33.21
2018-07-13T11:17:27.848Z,33.56
2018-07-13T11:19:57.161Z,33.40
2018-07-13T11:22:26.504Z,33.58
2018-07-13T11:24:55.752Z,33.52
2018-07-13T11:27:25.100Z,33.24
2018-07-13T11:29:54.509Z,33.41
2018-07-13T11:32:23.841Z,33.37
2018-07-13T11:34:53.180Z,33.69
2018-07-13T11:37:22.687Z,33.83
2018-07-13T11:39:51.824Z,33.29
2018-07-13T11:42:21.106Z,33.13
2018-07-13T11:44:50.439Z,33.43
2018-07-13T11:47:19.973Z,33.72
2018-07-13T11:49:49.342Z,33.83
2018-07-13T11:52:18.780Z,34.19
2018-07-13T11:54:48.094Z,34.05
2018-07-13T11:57:17.344Z,34.03
2018-07-13T11:59:46.691Z,33.88
2018-07-13T12:02:15.956Z,33.82
2018-07-13T12:04:45.205Z,33.66
2018-07-13T12:07:14.577Z,33.84
2018-07-13T12:09:43.998Z,33.53
2018-07-13T12:12:13.244Z,33.85
2018-07-13T12:14:42.548Z,33.64
2018-07-13T12:17:11.938Z,33.76
2018-07-13T12:19:41.229Z,33.28
2018-07-13T12:22:10.539Z,33.45
2018-07-13T12:24:39.906Z,33.16
2018-07-13T12:27:09.317Z,33.71
2018-07-13T12:29:38.771Z,33.64
2018-07-13T12:32:08.166Z,33.58
2018-07-13T12:34:37.513Z,33.63
2018-07-13T12:37:06.833Z,33.97
2018-07-13T12:39:36.234Z,33.78
2018-07-13T12:42:05.531Z,33.32
2018-07-13T12:44:34.886Z,33.08
2018-07-13T12:47:04.120Z,33.55
2018-07-13T12:49:33.381Z,33.73
2018-07-13T12:52:02.748Z,33.92
2018-07-13T12:54:32.009Z,33.38
2018-07-13T12:57:01.285Z,33.99
2018-07-13T12:59:30.598Z,34.02
2018-07-13T13:01:59.877Z,34.06
2018-07-13T13:04:29.091Z,34.27
2018-07-13T13:06:58.405Z,34.01
2018-07-13T13:09:27.434Z,33.32
2018-07-13T13:11:56.697Z,33.23
2018-07-13T13:14:26.011Z,33.50
2018-07-13T13:16:55.309Z,33.73
2018-07-13T13:19:24.613Z,34.08
2018-07-13T13:21:53.967Z,34.00
2018-07-13T13:24:23.226Z,33.45
2018-07-13T13:26:52.486Z,33.69
2018-07-13T13:29:21.948Z,32.73
2018-07-13T13:31:51.057Z,33.24
2018-07-13T13:34:20.304Z,33.28
2018-07-13T13:36:49.539Z,33.18
2018-07-13T13:39:18.833Z,33.78
2018-07-13T13:41:48.217Z,33.61
2018-07-13T13:44:17.527Z,33.38
2018-07-13T13:46:46.942Z,33.39
2018-07-13T13:49:16.341Z,33.36
2018-07-13T13:51:45.641Z,33.32
2018-07-13T13:54:15.177Z,33.43
2018-07-13T13:56:44.427Z,33.30
2018-07-13T13:59:13.733Z,33.11
2018-07-13T14:01:43.006Z,33.17
2018-07-13T14:04:12.458Z,33.13
2018-07-13T14:06:41.788Z,33.31
2018-07-13T14:09:11.195Z,32.81
2018-07-13T14:11:40.532Z,33.15
2018-07-13T14:14:09.919Z,33.08
2018-07-13T14:16:39.236Z,32.74
2018-07-13T14:19:08.653Z,32.99
2018-07-13T14:21:37.848Z,32.93
2018-07-13T14:24:14.030Z,33.11
2018-07-13T14:26:43.333Z,32.83
2018-07-13T14:29:12.612Z,32.76
2018-07-13T14:31:41.930Z,33.02
2018-07-13T14:34:11.491Z,32.33
2018-07-13T14:36:40.757Z,32.35
2018-07-13T14:39:11.056Z,32.18
2018-07-13T14:41:40.405Z,31.89
2018-07-13T14:44:09.987Z,31.66
2018-07-13T14:46:39.408Z,31.61
2018-07-13T14:49:08.971Z,31.66
2018-07-13T14:51:38.277Z,31.85
2018-07-13T14:54:07.742Z,30.80
2018-07-13T14:56:37.054Z,31.14
2018-07-13T14:59:06.366Z,30.22
2018-07-13T15:01:35.721Z,30.15
2018-07-13T15:04:05.050Z,30.21
2018-07-13T15:06:34.460Z,30.60
2018-07-13T15:09:03.955Z,30.27
2018-07-13T15:11:33.264Z,30.65
2018-07-13T15:14:02.548Z,30.66
2018-07-13T15:16:31.859Z,30.69
2018-07-13T15:19:01.146Z,30.83
2018-07-13T15:21:30.442Z,30.46
2018-07-13T15:23:59.837Z,30.49
2018-07-13T15:26:29.273Z,30.25
2018-07-13T15:28:58.583Z,29.93
2018-07-13T15:31:27.928Z,30.08
2018-07-13T15:33:57.295Z,29.19
2018-07-13T15:36:26.722Z,29.62
2018-07-13T15:38:56.025Z,29.84
2018-07-13T15:41:25.279Z,29.93
2018-07-13T15:43:54.628Z,29.57
2018-07-13T15:46:23.917Z,29.57
2018-07-13T15:48:53.181Z,29.61
2018-07-13T15:51:22.452Z,29.18
2018-07-13T15:53:51.820Z,28.91
2018-07-13T15:56:20.835Z,28.98
2018-07-13T15:58:50.127Z,29.07
2018-07-13T16:01:19.461Z,29.07
2018-07-13T16:03:48.874Z,29.19
2018-07-13T16:06:18.200Z,29.09
2018-07-13T16:08:47.511Z,29.14
2018-07-13T16:11:16.823Z,28.85
2018-07-13T16:13:46.243Z,28.82
2018-07-13T16:16:15.779Z,28.51
2018-07-13T16:18:45.008Z,28.68
2018-07-13T16:21:14.259Z,28.58
2018-07-13T16:23:43.549Z,28.53
2018-07-13T16:26:12.934Z,28.52
2018-07-13T16:28:43.217Z,28.32
2018-07-13T16:31:12.547Z,28.37
2018-07-13T16:33:42.421Z,28.32
2018-07-13T16:36:11.954Z,28.30
2018-07-13T16:38:41.614Z,28.24
2018-07-13T16:41:10.977Z,28.31
2018-07-13T16:43:40.586Z,28.23
2018-07-13T16:46:10.086Z,28.22
2018-07-13T16:48:39.460Z,28.35
2018-07-13T16:51:08.911Z,28.38
2018-07-13T16:53:38.359Z,28.27
2018-07-13T16:56:08.225Z,28.29
2018-07-13T16:58:37.775Z,28.30
2018-07-13T17:01:07.274Z,28.15
2018-07-13T17:03:36.556Z,28.19
2018-07-13T17:06:06.075Z,28.27
2018-07-13T17:08:35.319Z,28.02
2018-07-13T17:11:04.606Z,27.98
2018-07-13T17:13:33.921Z,27.96
2018-07-13T17:16:03.196Z,27.89
2018-07-13T17:18:32.511Z,27.84
2018-07-13T17:21:01.790Z,27.74
2018-07-13T17:23:31.061Z,27.76
2018-07-13T17:26:00.982Z,27.57
2018-07-13T17:28:30.459Z,27.57
2018-07-13T17:30:59.693Z,27.50
2018-07-13T17:33:29.074Z,27.38
2018-07-13T17:35:58.467Z,27.27
2018-07-13T17:38:29.137Z,27.22
2018-07-13T17:40:59.186Z,27.13
2018-07-13T17:43:28.597Z,27.11
2018-07-13T17:45:57.953Z,26.98
2018-07-13T17:48:27.207Z,26.86
2018-07-13T17:50:56.557Z,26.80
2018-07-13T17:53:25.931Z,26.77
2018-07-13T17:55:55.305Z,26.70
2018-07-13T17:58:24.595Z,26.61
2018-07-13T18:00:54.037Z,26.56
2018-07-13T18:03:23.351Z,26.50
2018-07-13T18:05:52.587Z,26.52
2018-07-13T18:08:21.875Z,26.45
2018-07-13T18:10:51.178Z,26.41
2018-07-13T18:13:20.640Z,26.40
2018-07-13T18:15:49.997Z,26.32
2018-07-13T18:18:25.211Z,26.30
2018-07-13T18:20:57.286Z,26.23
2018-07-13T18:23:26.878Z,26.20
2018-07-13T18:25:56.291Z,26.19
2018-07-13T18:28:25.882Z,26.13
2018-07-13T18:30:55.296Z,26.07
2018-07-13T18:33:24.671Z,25.99
2018-07-13T18:35:54.104Z,25.98
2018-07-13T18:38:23.504Z,25.91
2018-07-13T18:40:52.816Z,25.84
2018-07-13T18:43:22.121Z,25.73
2018-07-13T18:45:51.537Z,25.73
2018-07-13T18:48:20.602Z,25.65
2018-07-13T18:50:49.952Z,25.69
2018-07-13T18:53:19.291Z,25.99
2018-07-13T18:55:48.604Z,26.09
2018-07-13T19:01:15.952Z,26.56
2018-07-13T19:03:45.540Z,27.38
2018-07-13T19:06:15.155Z,27.02
2018-07-13T19:08:44.630Z,27.08
2018-07-13T19:11:14.023Z,27.10
2018-07-13T19:13:43.616Z,27.64
2018-07-13T19:16:13.245Z,27.57
2018-07-13T19:18:42.746Z,27.44
2018-07-13T19:21:12.084Z,27.38
2018-07-13T19:23:41.611Z,27.10
2018-07-13T19:26:11.193Z,27.23
2018-07-13T19:28:41.456Z,27.48
2018-07-13T19:31:12.236Z,27.28
2018-07-13T19:33:41.723Z,26.93
2018-07-13T19:36:11.839Z,26.74
2018-07-13T19:38:45.189Z,26.59
2018-07-13T19:41:15.116Z,26.38
2018-07-13T19:43:44.366Z,26.12
2018-07-13T19:46:13.999Z,26.45
2018-07-13T19:48:43.379Z,26.18
2018-07-13T19:51:12.898Z,25.94
2018-07-13T19:53:42.217Z,25.79
2018-07-13T19:56:11.825Z,25.70
2018-07-13T19:58:41.124Z,25.44
2018-07-13T20:01:10.549Z,25.24
2018-07-13T20:03:39.788Z,25.06
2018-07-13T20:06:09.219Z,25.00
2018-07-13T20:08:38.571Z,24.82
2018-07-13T20:11:08.413Z,24.62
2018-07-13T20:13:38.137Z,24.49
2018-07-13T20:16:07.478Z,24.38
2018-07-13T20:18:36.794Z,24.26
2018-07-13T20:21:06.229Z,24.19
2018-07-13T20:23:35.531Z,24.09
2018-07-13T20:26:04.998Z,23.99
2018-07-13T20:28:34.336Z,23.92
2018-07-13T20:31:03.740Z,23.89
2018-07-13T20:33:33.106Z,23.81
2018-07-13T20:36:02.522Z,23.71
2018-07-13T20:38:31.957Z,23.64
2018-07-13T20:41:01.648Z,23.54
2018-07-13T20:43:31.069Z,23.49
2018-07-13T20:46:00.479Z,23.40
2018-07-13T20:48:29.806Z,23.29
2018-07-13T20:50:59.206Z,23.25
2018-07-13T20:53:28.626Z,23.17
2018-07-13T20:55:58.042Z,23.05
2018-07-13T20:58:27.310Z,22.99
2018-07-13T21:00:56.676Z,22.95
2018-07-13T21:03:25.950Z,22.90
2018-07-13T21:05:55.206Z,22.81
2018-07-13T21:08:24.470Z,22.81
2018-07-13T21:10:53.804Z,22.89
2018-07-13T21:13:23.210Z,22.78
2018-07-13T21:15:52.559Z,22.76
2018-07-13T21:18:21.843Z,22.76
2018-07-13T21:20:51.240Z,22.72
2018-07-13T21:23:20.607Z,22.81
2018-07-13T21:25:49.912Z,22.81
2018-07-13T21:28:19.544Z,22.90
2018-07-13T21:30:48.960Z,22.95
2018-07-13T21:33:18.068Z,22.89
2018-07-13T21:35:47.407Z,22.86
2018-07-13T21:38:16.716Z,22.85
2018-07-13T21:40:46.115Z,22.75
2018-07-13T21:43:15.410Z,22.66
2018-07-13T21:45:44.746Z,22.58
2018-07-13T21:48:14.036Z,22.54
2018-07-13T21:50:43.369Z,22.58
2018-07-13T21:53:12.678Z,22.61
2018-07-13T21:55:42.164Z,22.63
2018-07-13T21:58:11.483Z,22.56
2018-07-13T22:00:40.858Z,22.48
2018-07-13T22:03:10.224Z,22.53
2018-07-13T22:05:39.597Z,22.53
2018-07-13T22:08:09.094Z,22.56
2018-07-13T22:10:38.611Z,22.53
2018-07-13T22:13:08.457Z,22.46
2018-07-13T22:15:37.838Z,22.51
2018-07-13T22:18:07.480Z,22.42
2018-07-13T22:20:36.826Z,22.40
2018-07-13T22:23:07.759Z,22.27
2018-07-13T22:25:37.270Z,22.30
2018-07-13T22:28:06.799Z,22.31
2018-07-13T22:30:37.137Z,22.12
2018-07-13T22:33:07.226Z,22.21
2018-07-13T22:35:36.973Z,22.07
2018-07-13T22:38:06.431Z,22.10
2018-07-13T22:40:35.888Z,21.96
2018-07-13T22:43:05.292Z,21.83
2018-07-13T22:45:34.785Z,21.83
2018-07-13T22:48:04.177Z,21.68
2018-07-13T22:50:33.678Z,21.71
2018-07-13T22:53:02.895Z,21.74
2018-07-13T22:55:32.284Z,21.60
2018-07-13T22:58:01.869Z,21.64
2018-07-13T23:00:31.273Z,21.54
2018-07-13T23:03:00.711Z,21.56
2018-07-13T23:05:30.146Z,21.37
2018-07-13T23:07:59.695Z,21.27
2018-07-13T23:10:28.873Z,21.22
2018-07-13T23:12:58.239Z,21.28
2018-07-13T23:15:27.863Z,21.31
2018-07-13T23:17:57.213Z,21.19
2018-07-13T23:20:26.788Z,21.11
2018-07-13T23:22:56.092Z,21.20
2018-07-13T23:25:26.334Z,21.07
2018-07-13T23:27:55.632Z,20.97
2018-07-13T23:30:24.899Z,20.91
2018-07-13T23:32:54.319Z,20.90
2018-07-13T23:35:23.621Z,20.84
2018-07-13T23:37:53.221Z,20.80
2018-07-13T23:40:22.845Z,20.74
2018-07-13T23:42:52.149Z,20.66
2018-07-13T23:45:21.567Z,20.74
2018-07-13T23:47:50.877Z,20.61
2018-07-13T23:50:20.246Z,20.57
2018-07-13T23:52:49.715Z,20.53
2018-07-13T23:55:18.865Z,20.55
2018-07-13T23:57:48.194Z,20.55
